createdAt,value
2017-09-01T00:00:40.419Z,99.99
2017-09-01T00:01:41.002Z,99.99
2017-09-01T00:02:41.577Z,99.99
2017-09-01T00:03:42.150Z,99.99
2017-09-01T00:04:42.727Z,99.99
2017-09-01T00:05:43.300Z,99.99
2017-09-01T00:06:43.880Z,99.99
2017-09-01T00:07:44.455Z,99.99
2017-09-01T00:08:45.027Z,99.99
2017-09-01T00:09:45.603Z,99.99
2017-09-01T00:10:46.178Z,99.99
2017-09-01T00:11:46.751Z,99.99
2017-09-01T00:12:47.324Z,99.99
2017-09-01T00:13:47.901Z,99.99
2017-09-01T00:14:48.483Z,99.99
2017-09-01T00:15:49.054Z,99.99
2017-09-01T00:16:49.629Z,99.99
2017-09-01T00:17:50.203Z,99.99
2017-09-01T00:18:50.775Z,99.99
2017-09-01T00:19:51.347Z,99.99
2017-09-01T00:20:51.921Z,99.99
2017-09-01T00:21:52.492Z,99.99
2017-09-01T00:22:53.065Z,99.99
2017-09-01T00:23:53.648Z,99.99
2017-09-01T00:24:54.220Z,99.99
2017-09-01T00:25:54.794Z,99.99
2017-09-01T00:26:55.369Z,99.99
2017-09-01T00:27:55.941Z,99.99
2017-09-01T00:28:56.513Z,99.99
2017-09-01T00:29:57.085Z,99.99
2017-09-01T00:30:57.657Z,99.99
2017-09-01T00:31:58.230Z,99.99
2017-09-01T00:32:58.801Z,99.99
2017-09-01T00:33:59.374Z,99.99
2017-09-01T00:34:59.946Z,99.99
2017-09-01T00:36:00.523Z,99.99
2017-09-01T00:37:01.103Z,99.99
2017-09-01T00:38:01.676Z,99.99
2017-09-01T00:39:02.250Z,99.99
2017-09-01T00:40:02.823Z,99.99
2017-09-01T00:41:03.395Z,99.99
2017-09-01T00:42:03.966Z,99.99
2017-09-01T00:43:04.538Z,99.99
2017-09-01T00:44:05.110Z,99.99
2017-09-01T00:45:05.682Z,99.99
2017-09-01T00:46:06.258Z,99.99
2017-09-01T00:47:06.840Z,99.99
2017-09-01T00:48:07.413Z,99.99
2017-09-01T00:49:07.985Z,99.99
2017-09-01T00:50:08.558Z,99.99
2017-09-01T00:51:09.133Z,99.99
2017-09-01T00:52:09.706Z,99.99
2017-09-01T00:53:10.278Z,99.99
2017-09-01T00:54:10.851Z,99.99
2017-09-01T00:55:11.435Z,99.99
2017-09-01T00:56:12.007Z,99.99
2017-09-01T00:57:12.579Z,99.99
2017-09-01T00:58:13.153Z,99.99
2017-09-01T00:59:13.732Z,99.99
2017-09-01T01:00:14.298Z,99.99
2017-09-01T01:01:14.869Z,99.99
2017-09-01T01:02:15.451Z,99.99
2017-09-01T01:03:16.024Z,99.99
2017-09-01T01:04:16.600Z,99.99
2017-09-01T01:05:17.173Z,99.99
2017-09-01T01:06:17.748Z,99.99
2017-09-01T01:07:18.318Z,99.99
2017-09-01T01:08:18.892Z,99.99
2017-09-01T01:09:19.462Z,99.99
2017-09-01T01:10:20.035Z,99.99
2017-09-01T01:11:20.607Z,99.99
2017-09-01T01:12:21.184Z,99.99
2017-09-01T01:13:21.751Z,99.99
2017-09-01T01:14:22.324Z,99.99
2017-09-01T01:15:22.899Z,99.99
2017-09-01T01:16:23.472Z,99.99
2017-09-01T01:17:24.044Z,99.99
2017-09-01T01:18:24.617Z,99.99
2017-09-01T01:19:25.191Z,99.99
2017-09-01T01:20:25.766Z,99.99
2017-09-01T01:21:26.338Z,99.99
2017-09-01T01:22:26.910Z,99.99
2017-09-01T01:23:27.482Z,99.99
2017-09-01T01:24:28.053Z,99.99
2017-09-01T01:25:28.626Z,99.99
2017-09-01T01:26:29.198Z,99.99
2017-09-01T01:27:29.772Z,99.99
2017-09-01T01:28:30.357Z,99.99
2017-09-01T01:29:30.930Z,99.99
2017-09-01T01:30:31.502Z,99.99
2017-09-01T01:31:32.074Z,99.99
2017-09-01T01:32:32.645Z,99.99
2017-09-01T01:33:33.218Z,99.99
2017-09-01T01:34:33.790Z,99.99
2017-09-01T01:35:34.364Z,99.99
2017-09-01T01:36:34.935Z,99.99
2017-09-01T01:37:35.510Z,99.99
2017-09-01T01:38:36.082Z,99.99
2017-09-01T01:39:36.651Z,99.99
2017-09-01T01:40:37.234Z,99.99
2017-09-01T01:41:37.816Z,99.99
2017-09-01T01:42:38.387Z,99.99
2017-09-01T01:43:38.965Z,99.99
2017-09-01T01:44:39.536Z,99.99
2017-09-01T01:45:40.119Z,99.99
2017-09-01T01:46:40.691Z,99.99
2017-09-01T01:47:41.264Z,99.99
2017-09-01T01:48:41.836Z,99.99
2017-09-01T01:49:42.412Z,99.99
2017-09-01T01:50:42.982Z,99.99
2017-09-01T01:51:43.556Z,99.99
2017-09-01T01:52:44.135Z,99.99
2017-09-01T01:53:44.705Z,99.99
2017-09-01T01:54:45.276Z,99.99
2017-09-01T01:55:45.852Z,99.99
2017-09-01T01:56:46.422Z,99.99
2017-09-01T01:57:46.998Z,99.99
2017-09-01T01:58:47.568Z,99.99
2017-09-01T01:59:48.139Z,99.99
2017-09-01T02:00:48.710Z,99.99
2017-09-01T02:01:49.295Z,99.99
2017-09-01T02:02:49.879Z,99.99
2017-09-01T02:03:50.449Z,99.99
2017-09-01T02:04:51.021Z,99.99
2017-09-01T02:05:51.594Z,99.99
2017-09-01T02:06:52.167Z,99.99
2017-09-01T02:07:52.749Z,99.99
2017-09-01T02:08:53.322Z,99.99
2017-09-01T02:09:53.910Z,99.99
2017-09-01T02:10:54.487Z,99.99
2017-09-01T02:11:55.060Z,99.99
2017-09-01T02:12:55.632Z,99.99
2017-09-01T02:13:56.203Z,99.99
2017-09-01T02:14:56.774Z,99.99
2017-09-01T02:15:57.347Z,99.99
2017-09-01T02:16:57.930Z,99.99
2017-09-01T02:17:58.504Z,99.99
2017-09-01T02:18:59.075Z,99.99
2017-09-01T02:19:59.648Z,99.99
2017-09-01T02:21:00.220Z,99.99
2017-09-01T02:22:00.793Z,99.99
2017-09-01T02:23:01.365Z,99.99
2017-09-01T02:24:01.936Z,99.99
2017-09-01T02:25:02.509Z,99.99
2017-09-01T02:26:03.081Z,99.99
2017-09-01T02:27:03.654Z,99.99
2017-09-01T02:28:04.238Z,99.99
2017-09-01T02:29:04.811Z,99.99
2017-09-01T02:30:05.383Z,99.99
2017-09-01T02:31:05.955Z,99.99
2017-09-01T02:32:06.528Z,99.99
2017-09-01T02:33:07.099Z,99.99
2017-09-01T02:34:07.683Z,99.99
2017-09-01T02:35:08.243Z,99.99
2017-09-01T02:36:08.816Z,99.99
2017-09-01T02:37:09.389Z,99.99
2017-09-01T02:38:09.965Z,99.99
2017-09-01T02:39:10.533Z,99.99
2017-09-01T02:40:11.107Z,99.99
2017-09-01T02:41:11.679Z,99.99
2017-09-01T02:42:12.254Z,99.99
2017-09-01T02:43:12.831Z,99.99
2017-09-01T02:44:13.407Z,99.99
2017-09-01T02:45:13.983Z,99.99
2017-09-01T02:46:14.551Z,99.99
2017-09-01T02:47:15.125Z,99.99
2017-09-01T02:48:15.703Z,99.99
2017-09-01T02:49:16.282Z,99.99
2017-09-01T02:50:16.867Z,99.99
2017-09-01T02:51:17.439Z,99.99
2017-09-01T02:52:18.011Z,99.99
2017-09-01T02:53:18.583Z,99.99
2017-09-01T02:54:19.155Z,99.99
2017-09-01T02:55:19.727Z,99.99
2017-09-01T02:56:20.300Z,99.99
2017-09-01T02:57:20.882Z,99.99
2017-09-01T02:58:21.455Z,99.99
2017-09-01T02:59:22.029Z,99.99
2017-09-01T03:00:22.602Z,99.99
2017-09-01T03:01:23.174Z,99.99
2017-09-01T03:02:23.747Z,99.99
2017-09-01T03:03:24.319Z,99.99
2017-09-01T03:04:24.891Z,99.99
2017-09-01T03:05:25.463Z,99.99
2017-09-01T03:06:26.035Z,99.99
2017-09-01T03:07:26.606Z,99.99
2017-09-01T03:08:27.197Z,99.99
2017-09-01T03:09:27.761Z,99.99
2017-09-01T03:10:28.336Z,99.99
2017-09-01T03:11:28.909Z,99.99
2017-09-01T03:12:29.479Z,99.99
2017-09-01T03:13:30.050Z,99.99
2017-09-01T03:14:30.623Z,99.99
2017-09-01T03:15:31.196Z,99.99
2017-09-01T03:16:31.768Z,99.99
2017-09-01T03:17:32.341Z,99.99
2017-09-01T03:18:32.912Z,99.99
2017-09-01T03:19:33.484Z,99.99
2017-09-01T03:20:34.056Z,99.99
2017-09-01T03:21:34.628Z,99.99
2017-09-01T03:22:35.200Z,99.99
2017-09-01T03:23:35.773Z,99.99
2017-09-01T03:24:36.357Z,99.99
2017-09-01T03:25:36.929Z,99.99
2017-09-01T03:26:37.501Z,99.99
2017-09-01T03:27:38.070Z,99.99
2017-09-01T03:28:38.642Z,99.99
2017-09-01T03:29:39.215Z,99.99
2017-09-01T03:30:39.787Z,99.99
2017-09-01T03:31:40.358Z,99.99
2017-09-01T03:32:40.931Z,99.99
2017-09-01T03:33:41.503Z,99.99
2017-09-01T03:34:42.075Z,99.99
2017-09-01T03:35:42.649Z,99.99
2017-09-01T03:36:43.223Z,99.99
2017-09-01T03:37:43.797Z,99.99
2017-09-01T03:38:44.370Z,99.99
2017-09-01T03:39:44.942Z,99.99
2017-09-01T03:40:45.522Z,99.99
2017-09-01T03:41:46.091Z,99.99
2017-09-01T03:42:46.670Z,99.99
2017-09-01T03:43:47.244Z,99.99
2017-09-01T03:44:47.819Z,99.99
2017-09-01T03:45:48.391Z,99.99
2017-09-01T03:46:48.964Z,99.99
2017-09-01T03:47:49.537Z,99.99
2017-09-01T03:48:50.110Z,99.99
2017-09-01T03:49:50.682Z,99.99
2017-09-01T03:50:51.254Z,99.99
2017-09-01T03:51:51.824Z,99.99
2017-09-01T03:52:52.398Z,99.99
2017-09-01T03:53:52.968Z,99.99
2017-09-01T03:54:53.541Z,99.99
2017-09-01T03:55:54.113Z,99.99
2017-09-01T03:56:54.696Z,99.99
2017-09-01T03:57:55.269Z,99.99
2017-09-01T03:58:55.839Z,99.99
2017-09-01T03:59:56.417Z,99.99
2017-09-01T04:00:56.985Z,99.99
2017-09-01T04:01:57.558Z,99.99
2017-09-01T04:02:58.129Z,99.99
2017-09-01T04:03:58.700Z,99.99
2017-09-01T04:04:59.272Z,99.99
2017-09-01T04:05:59.845Z,99.99
2017-09-01T04:07:00.422Z,99.99
2017-09-01T04:08:00.991Z,99.99
2017-09-01T04:09:01.562Z,99.99
2017-09-01T04:10:02.138Z,99.99
2017-09-01T04:11:02.718Z,99.99
2017-09-01T04:12:03.302Z,99.99
2017-09-01T04:13:03.877Z,99.99
2017-09-01T04:14:04.449Z,99.99
2017-09-01T04:15:05.024Z,99.99
2017-09-01T04:16:05.594Z,99.99
2017-09-01T04:17:06.167Z,99.99
2017-09-01T04:18:06.739Z,99.99
2017-09-01T04:19:07.311Z,99.99
2017-09-01T04:20:07.882Z,99.99
2017-09-01T04:21:08.454Z,99.99
2017-09-01T04:22:09.026Z,99.99
2017-09-01T04:23:09.599Z,99.99
2017-09-01T04:24:10.173Z,99.99
2017-09-01T04:25:10.748Z,99.99
2017-09-01T04:26:11.319Z,99.99
2017-09-01T04:27:11.892Z,99.99
2017-09-01T04:28:12.467Z,99.99
2017-09-01T04:29:13.040Z,99.99
2017-09-01T04:30:13.611Z,99.99
2017-09-01T04:31:14.184Z,99.99
2017-09-01T04:32:14.756Z,99.99
2017-09-01T04:33:15.327Z,99.99
2017-09-01T04:34:15.911Z,99.99
2017-09-01T04:35:16.484Z,99.99
2017-09-01T04:36:17.070Z,99.99
2017-09-01T04:37:17.642Z,99.99
2017-09-01T04:38:18.216Z,99.99
2017-09-01T04:39:18.798Z,99.99
2017-09-01T04:40:19.370Z,99.99
2017-09-01T04:41:19.945Z,99.99
2017-09-01T04:42:20.517Z,99.99
2017-09-01T04:43:21.091Z,99.99
2017-09-01T04:44:21.661Z,99.99
2017-09-01T04:45:22.236Z,99.99
2017-09-01T04:46:22.809Z,99.99
2017-09-01T04:47:23.385Z,99.99
2017-09-01T04:48:23.952Z,99.99
2017-09-01T04:49:24.525Z,99.99
2017-09-01T04:50:25.099Z,99.99
2017-09-01T04:51:25.678Z,99.99
2017-09-01T04:52:26.244Z,99.99
2017-09-01T04:53:26.818Z,99.99
2017-09-01T04:54:27.393Z,99.99
2017-09-01T04:55:27.980Z,99.99
2017-09-01T04:56:28.551Z,99.99
2017-09-01T04:57:29.128Z,99.99
2017-09-01T04:58:29.699Z,99.99
2017-09-01T04:59:30.274Z,99.99
2017-09-01T05:00:30.847Z,99.99
2017-09-01T05:01:31.432Z,99.99
2017-09-01T05:02:32.008Z,99.99
2017-09-01T05:03:32.580Z,99.99
2017-09-01T05:04:33.158Z,99.99
2017-09-01T05:05:33.728Z,99.99
2017-09-01T05:06:34.300Z,99.99
2017-09-01T05:07:34.872Z,99.99
2017-09-01T05:08:35.447Z,99.99
2017-09-01T05:09:36.020Z,99.99
2017-09-01T05:10:36.594Z,99.99
2017-09-01T05:11:37.169Z,99.99
2017-09-01T05:12:37.741Z,99.99
2017-09-01T05:13:38.315Z,99.99
2017-09-01T05:14:38.888Z,99.99
2017-09-01T05:15:39.460Z,99.99
2017-09-01T05:16:40.033Z,99.99
2017-09-01T05:17:40.608Z,99.99
2017-09-01T05:18:41.183Z,99.99
2017-09-01T05:19:41.756Z,99.99
2017-09-01T05:20:42.334Z,99.99
2017-09-01T05:21:42.907Z,99.99
2017-09-01T05:22:43.480Z,99.99
2017-09-01T05:23:44.051Z,99.99
2017-09-01T05:24:44.623Z,99.99
2017-09-01T05:25:45.198Z,99.99
2017-09-01T05:26:45.773Z,99.99
2017-09-01T05:27:46.354Z,99.99
2017-09-01T05:28:46.927Z,99.99
2017-09-01T05:29:47.500Z,99.99
2017-09-01T05:30:48.084Z,99.99
2017-09-01T05:31:48.657Z,99.99
2017-09-01T05:32:49.231Z,99.99
2017-09-01T05:33:49.804Z,99.99
2017-09-01T05:34:50.378Z,99.99
2017-09-01T05:35:50.951Z,99.99
2017-09-01T05:36:51.526Z,99.99
2017-09-01T05:37:52.099Z,99.99
2017-09-01T05:38:52.674Z,99.99
2017-09-01T05:39:53.260Z,99.99
2017-09-01T05:40:53.835Z,99.99
2017-09-01T05:41:54.408Z,99.99
2017-09-01T05:42:54.983Z,99.99
2017-09-01T05:43:55.568Z,99.99
2017-09-01T05:44:56.144Z,99.99
2017-09-01T05:45:56.719Z,99.99
2017-09-01T05:46:57.293Z,99.99
2017-09-01T05:47:57.867Z,99.99
2017-09-01T05:48:58.443Z,99.99
2017-09-01T05:49:59.017Z,99.99
2017-09-01T05:50:59.603Z,99.99
2017-09-01T05:52:00.179Z,99.99
2017-09-01T05:53:00.754Z,99.99
2017-09-01T05:54:01.340Z,99.99
2017-09-01T05:55:01.917Z,99.99
2017-09-01T05:56:02.488Z,99.99
2017-09-01T05:57:03.063Z,99.99
2017-09-01T05:58:03.637Z,99.99
2017-09-01T05:59:04.212Z,99.99
2017-09-01T06:00:04.788Z,99.99
2017-09-01T06:01:05.363Z,99.99
2017-09-01T06:02:05.939Z,99.99
2017-09-01T06:03:06.513Z,99.99
2017-09-01T06:04:07.086Z,99.99
2017-09-01T06:05:07.661Z,99.99
2017-09-01T06:06:08.235Z,99.99
2017-09-01T06:07:08.811Z,99.99
2017-09-01T06:08:09.386Z,99.99
2017-09-01T06:09:09.960Z,99.99
2017-09-01T06:10:10.535Z,99.99
2017-09-01T06:11:11.110Z,99.99
2017-09-01T06:12:11.686Z,99.99
2017-09-01T06:13:12.260Z,99.99
2017-09-01T06:14:12.836Z,99.99
2017-09-01T06:15:13.410Z,99.99
2017-09-01T06:16:13.984Z,99.99
2017-09-01T06:17:14.558Z,99.99
2017-09-01T06:18:15.133Z,99.99
2017-09-01T06:19:15.710Z,99.99
2017-09-01T06:20:16.284Z,99.99
2017-09-01T06:21:16.859Z,99.99
2017-09-01T06:22:17.432Z,99.99
2017-09-01T06:23:18.006Z,99.99
2017-09-01T06:24:18.582Z,99.99
2017-09-01T06:25:19.157Z,99.99
2017-09-01T06:26:19.733Z,99.99
2017-09-01T06:27:20.308Z,99.99
2017-09-01T06:28:20.883Z,99.99
2017-09-01T06:29:21.456Z,99.99
2017-09-01T06:30:22.041Z,99.99
2017-09-01T06:31:22.617Z,99.99
2017-09-01T06:32:23.193Z,99.99
2017-09-01T06:33:23.767Z,99.99
2017-09-01T06:34:24.351Z,99.99
2017-09-01T06:35:24.925Z,99.99
2017-09-01T06:36:25.503Z,99.99
2017-09-01T06:37:26.086Z,99.99
2017-09-01T06:38:26.661Z,99.99
2017-09-01T06:39:27.237Z,99.99
2017-09-01T06:40:27.814Z,99.99
2017-09-01T06:41:28.387Z,99.99
2017-09-01T06:42:28.963Z,99.99
2017-09-01T06:43:29.539Z,99.99
2017-09-01T06:44:30.112Z,99.99
2017-09-01T06:45:30.689Z,99.99
2017-09-01T06:46:31.265Z,99.99
2017-09-01T06:47:31.842Z,99.99
2017-09-01T06:48:32.416Z,99.99
2017-09-01T06:49:32.991Z,99.99
2017-09-01T06:50:33.565Z,99.99
2017-09-01T06:51:34.141Z,99.99
2017-09-01T06:52:34.717Z,99.99
2017-09-01T06:53:35.293Z,99.99
2017-09-01T06:54:35.867Z,99.99
2017-09-01T06:55:36.442Z,99.99
2017-09-01T06:56:37.018Z,99.99
2017-09-01T06:57:37.603Z,99.99
2017-09-01T06:58:38.169Z,99.99
2017-09-01T06:59:38.745Z,99.99
2017-09-01T07:00:39.320Z,99.99
2017-09-01T07:01:39.897Z,99.99
2017-09-01T07:02:40.473Z,99.99
2017-09-01T07:03:41.052Z,99.99
2017-09-01T07:04:41.637Z,99.99
2017-09-01T07:05:42.222Z,99.99
2017-09-01T07:06:42.798Z,99.99
2017-09-01T07:07:43.375Z,99.99
2017-09-01T07:08:43.953Z,99.99
2017-09-01T07:09:44.528Z,99.99
2017-09-01T07:10:45.104Z,99.99
2017-09-01T07:11:45.681Z,99.99
2017-09-01T07:12:46.258Z,99.99
2017-09-01T07:13:46.845Z,99.99
2017-09-01T07:14:47.422Z,99.99
2017-09-01T07:15:48.006Z,99.99
2017-09-01T07:16:48.575Z,99.99
2017-09-01T07:17:49.150Z,99.99
2017-09-01T07:18:49.726Z,99.99
2017-09-01T07:19:50.305Z,99.99
2017-09-01T07:20:50.880Z,99.99
2017-09-01T07:21:51.454Z,99.99
2017-09-01T07:22:52.030Z,99.99
2017-09-01T07:23:52.606Z,99.99
2017-09-01T07:24:53.184Z,99.99
2017-09-01T07:25:53.760Z,99.99
2017-09-01T07:26:54.335Z,99.99
2017-09-01T07:27:54.912Z,99.99
2017-09-01T07:28:55.495Z,99.99
2017-09-01T07:29:56.066Z,99.99
2017-09-01T07:30:56.643Z,99.99
2017-09-01T07:31:57.219Z,99.99
2017-09-01T07:32:57.794Z,99.99
2017-09-01T07:33:58.372Z,99.99
2017-09-01T07:34:58.949Z,99.99
2017-09-01T07:35:59.525Z,99.99
2017-09-01T07:37:00.105Z,99.99
2017-09-01T07:38:00.680Z,99.99
2017-09-01T07:39:01.256Z,99.99
2017-09-01T07:40:01.837Z,99.99
2017-09-01T07:41:02.409Z,99.99
2017-09-01T07:42:02.986Z,99.99
2017-09-01T07:43:03.564Z,99.99
2017-09-01T07:44:04.141Z,99.99
2017-09-01T07:45:04.719Z,99.99
2017-09-01T07:46:05.295Z,99.99
2017-09-01T07:47:05.873Z,99.99
2017-09-01T07:48:06.451Z,99.99
2017-09-01T07:49:07.035Z,99.99
2017-09-01T07:50:07.606Z,99.99
2017-09-01T07:51:08.193Z,99.99
2017-09-01T07:52:08.770Z,99.99
2017-09-01T07:53:09.347Z,99.99
2017-09-01T07:54:09.927Z,99.99
2017-09-01T07:55:10.503Z,99.99
2017-09-01T07:56:11.081Z,99.99
2017-09-01T07:57:11.657Z,99.99
2017-09-01T07:58:12.234Z,99.99
2017-09-01T07:59:12.813Z,99.99
2017-09-01T08:00:13.391Z,99.99
2017-09-01T08:01:13.967Z,99.99
2017-09-01T08:02:14.555Z,99.99
2017-09-01T08:03:15.132Z,99.99
2017-09-01T08:04:15.721Z,99.99
2017-09-01T08:05:16.300Z,99.99
2017-09-01T08:06:16.876Z,99.99
2017-09-01T08:07:17.453Z,99.99
2017-09-01T08:08:18.033Z,99.99
2017-09-01T08:09:18.610Z,99.99
2017-09-01T08:10:19.200Z,99.99
2017-09-01T08:11:19.787Z,99.99
2017-09-01T08:12:20.364Z,99.99
2017-09-01T08:13:20.943Z,99.99
2017-09-01T08:14:21.524Z,99.99
2017-09-01T08:15:22.112Z,99.99
2017-09-01T08:16:22.690Z,99.99
2017-09-01T08:17:23.268Z,99.99
2017-09-01T08:18:23.857Z,99.99
2017-09-01T08:19:24.434Z,99.99
2017-09-01T08:20:25.011Z,99.99
2017-09-01T08:21:25.601Z,99.99
2017-09-01T08:22:26.178Z,99.99
2017-09-01T08:23:26.755Z,99.99
2017-09-01T08:24:27.334Z,99.99
2017-09-01T08:25:27.912Z,99.99
2017-09-01T08:26:28.492Z,99.99
2017-09-01T08:27:29.069Z,99.99
2017-09-01T08:28:29.648Z,99.99
2017-09-01T08:29:30.236Z,99.99
2017-09-01T08:30:30.813Z,99.99
2017-09-01T08:31:31.392Z,99.99
2017-09-01T08:32:31.971Z,99.99
2017-09-01T08:33:32.549Z,99.99
2017-09-01T08:34:33.126Z,99.99
2017-09-01T08:35:33.706Z,99.99
2017-09-01T08:36:34.285Z,99.99
2017-09-01T08:37:34.871Z,99.99
2017-09-01T08:38:35.442Z,99.99
2017-09-01T08:39:36.020Z,99.99
2017-09-01T08:40:36.604Z,99.99
2017-09-01T08:41:37.190Z,99.99
2017-09-01T08:42:37.767Z,99.99
2017-09-01T08:43:38.348Z,99.99
2017-09-01T08:44:38.925Z,99.99
2017-09-01T08:45:39.515Z,99.99
2017-09-01T08:46:40.093Z,99.99
2017-09-01T08:47:40.672Z,99.99
2017-09-01T08:48:41.248Z,99.99
2017-09-01T08:49:41.829Z,99.99
2017-09-01T08:50:42.407Z,99.99
2017-09-01T08:51:42.985Z,99.99
2017-09-01T08:52:43.564Z,99.99
2017-09-01T08:53:44.142Z,99.99
2017-09-01T08:54:44.724Z,99.99
2017-09-01T08:55:45.301Z,99.99
2017-09-01T08:56:45.880Z,99.99
2017-09-01T08:57:46.461Z,99.99
2017-09-01T08:58:47.038Z,99.99
2017-09-01T08:59:47.628Z,99.99
2017-09-01T09:00:48.208Z,99.99
2017-09-01T09:01:48.786Z,99.99
2017-09-01T09:02:49.371Z,99.99
2017-09-01T09:03:49.952Z,99.99
2017-09-01T09:04:50.530Z,99.99
2017-09-01T09:05:51.109Z,99.99
2017-09-01T09:06:51.689Z,99.99
2017-09-01T09:07:52.268Z,99.99
2017-09-01T09:08:52.858Z,99.99
2017-09-01T09:09:53.438Z,99.99
2017-09-01T09:10:54.016Z,99.99
2017-09-01T09:11:54.593Z,99.99
2017-09-01T09:12:55.170Z,99.99
2017-09-01T09:13:55.750Z,99.99
2017-09-01T09:14:56.330Z,99.99
2017-09-01T09:15:56.908Z,99.99
2017-09-01T09:16:57.486Z,99.99
2017-09-01T09:17:58.079Z,99.99
2017-09-01T09:18:58.654Z,99.99
2017-09-01T09:19:59.235Z,99.99
2017-09-01T09:20:59.810Z,99.99
2017-09-01T09:22:00.391Z,99.99
2017-09-01T09:23:00.979Z,99.99
2017-09-01T09:24:01.546Z,99.99
2017-09-01T09:25:02.125Z,99.99
2017-09-01T09:26:02.703Z,99.99
2017-09-01T09:27:03.284Z,99.99
2017-09-01T09:28:03.862Z,99.99
2017-09-01T09:29:04.440Z,99.99
2017-09-01T09:30:05.018Z,99.99
2017-09-01T09:31:05.598Z,99.99
2017-09-01T09:32:06.187Z,99.99
2017-09-01T09:33:06.767Z,99.99
2017-09-01T09:34:07.347Z,99.99
2017-09-01T09:35:07.926Z,99.99
2017-09-01T09:36:08.505Z,99.99
2017-09-01T09:37:09.086Z,99.99
2017-09-01T09:38:09.666Z,99.99
2017-09-01T09:39:10.246Z,99.99
2017-09-01T09:40:10.822Z,99.99
2017-09-01T09:41:11.401Z,99.99
2017-09-01T09:42:11.982Z,99.99
2017-09-01T09:43:12.566Z,99.99
2017-09-01T09:44:13.148Z,99.99
2017-09-01T09:45:13.729Z,99.99
2017-09-01T09:46:14.318Z,98.82
2017-09-01T09:47:14.898Z,99.99
2017-09-01T09:48:15.478Z,99.99
2017-09-01T09:49:16.059Z,99.25
2017-09-01T09:50:16.637Z,97.76
2017-09-01T09:51:17.225Z,99.58
2017-09-01T09:52:17.805Z,98.72
2017-09-01T09:53:18.389Z,98.72
2017-09-01T09:54:18.974Z,98.29
2017-09-01T09:55:19.553Z,99.54
2017-09-01T09:56:20.133Z,98.53
2017-09-01T09:57:20.713Z,99.39
2017-09-01T09:58:21.296Z,98.96
2017-09-01T09:59:21.881Z,97.33
2017-09-01T10:00:22.460Z,95.79
2017-09-01T10:01:23.041Z,95.50
2017-09-01T10:02:23.621Z,95.70
2017-09-01T10:03:24.202Z,96.42
2017-09-01T10:04:24.781Z,94.98
2017-09-01T10:05:25.358Z,95.21
2017-09-01T10:06:25.938Z,93.01
2017-09-01T10:07:26.528Z,90.94
2017-09-01T10:08:27.107Z,91.33
2017-09-01T10:09:27.686Z,92.96
2017-09-01T10:10:28.269Z,92.67
2017-09-01T10:11:28.855Z,92.48
2017-09-01T10:12:29.437Z,92.10
2017-09-01T10:13:30.015Z,93.92
2017-09-01T10:14:30.595Z,94.11
2017-09-01T10:15:31.174Z,94.16
2017-09-01T10:16:31.760Z,92.19
2017-09-01T10:17:32.334Z,92.10
2017-09-01T10:18:32.923Z,92.10
2017-09-01T10:19:33.503Z,94.21
2017-09-01T10:20:34.088Z,93.63
2017-09-01T10:21:34.662Z,94.45
2017-09-01T10:22:35.242Z,93.44
2017-09-01T10:23:35.823Z,93.82
2017-09-01T10:24:36.404Z,94.35
2017-09-01T10:25:36.984Z,94.16
2017-09-01T10:26:37.564Z,93.92
2017-09-01T10:27:38.143Z,94.40
2017-09-01T10:28:38.725Z,95.89
2017-09-01T10:29:39.304Z,95.70
2017-09-01T10:30:39.884Z,96.66
2017-09-01T10:31:40.464Z,95.60
2017-09-01T10:32:41.044Z,97.38
2017-09-01T10:33:41.624Z,95.84
2017-09-01T10:34:42.203Z,94.98
2017-09-01T10:35:42.783Z,95.65
2017-09-01T10:36:43.364Z,93.49
2017-09-01T10:37:43.939Z,92.05
2017-09-01T10:38:44.521Z,90.27
2017-09-01T10:39:45.104Z,90.84
2017-09-01T10:40:45.678Z,91.75
2017-09-01T10:41:46.257Z,91.08
2017-09-01T10:42:46.838Z,89.83
2017-09-01T10:43:47.419Z,91.18
2017-09-01T10:44:47.997Z,90.70
2017-09-01T10:45:48.588Z,90.36
2017-09-01T10:46:49.169Z,87.38
2017-09-01T10:47:49.748Z,86.28
2017-09-01T10:48:50.328Z,86.61
2017-09-01T10:49:50.909Z,89.40
2017-09-01T10:50:51.488Z,88.24
2017-09-01T10:51:52.068Z,86.52
2017-09-01T10:52:52.647Z,86.85
2017-09-01T10:53:53.227Z,87.76
2017-09-01T10:54:53.810Z,87.33
2017-09-01T10:55:54.390Z,84.92
2017-09-01T10:56:54.971Z,84.25
2017-09-01T10:57:55.554Z,85.50
2017-09-01T10:58:56.135Z,86.32
2017-09-01T10:59:56.727Z,87.19
2017-09-01T11:00:57.311Z,88.57
2017-09-01T11:01:57.890Z,88.67
2017-09-01T11:02:58.481Z,86.75
2017-09-01T11:03:59.062Z,86.22
2017-09-01T11:04:59.641Z,86.94
2017-09-01T11:06:00.223Z,89.25
2017-09-01T11:07:00.804Z,88.14
2017-09-01T11:08:01.384Z,88.28
2017-09-01T11:09:01.963Z,86.74
2017-09-01T11:10:02.546Z,86.35
2017-09-01T11:11:03.127Z,84.97
2017-09-01T11:12:03.708Z,86.12
2017-09-01T11:13:04.300Z,85.88
2017-09-01T11:14:04.880Z,87.62
2017-09-01T11:15:05.464Z,86.32
2017-09-01T11:16:06.039Z,86.71
2017-09-01T11:17:06.621Z,87.38
2017-09-01T11:18:07.204Z,86.27
2017-09-01T11:19:07.797Z,85.74
2017-09-01T11:20:08.378Z,83.52
2017-09-01T11:21:08.958Z,82.08
2017-09-01T11:22:09.543Z,83.08
2017-09-01T11:23:10.122Z,84.09
2017-09-01T11:24:10.704Z,81.01
2017-09-01T11:25:11.287Z,80.68
2017-09-01T11:26:11.877Z,81.10
2017-09-01T11:27:12.457Z,80.14
2017-09-01T11:28:13.038Z,80.04
2017-09-01T11:29:13.620Z,80.14
2017-09-01T11:30:14.203Z,78.34
2017-09-01T11:31:14.784Z,77.67
2017-09-01T11:32:15.372Z,78.34
2017-09-01T11:33:15.950Z,77.58
2017-09-01T11:34:16.532Z,76.42
2017-09-01T11:35:17.113Z,77.28
2017-09-01T11:36:17.696Z,75.88
2017-09-01T11:37:18.276Z,75.49
2017-09-01T11:38:18.856Z,76.71
2017-09-01T11:39:19.437Z,77.00
2017-09-01T11:40:20.019Z,76.51
2017-09-01T11:41:20.600Z,76.06
2017-09-01T11:42:21.181Z,79.10
2017-09-01T11:43:21.764Z,79.53
2017-09-01T11:44:22.346Z,79.73
2017-09-01T11:45:22.929Z,80.50
2017-09-01T11:46:23.511Z,80.54
2017-09-01T11:47:24.093Z,80.58
2017-09-01T11:48:24.685Z,78.59
2017-09-01T11:49:25.267Z,77.44
2017-09-01T11:50:25.850Z,77.78
2017-09-01T11:51:26.431Z,79.36
2017-09-01T11:52:27.014Z,77.67
2017-09-01T11:53:27.596Z,77.48
2017-09-01T11:54:28.177Z,77.67
2017-09-01T11:55:28.760Z,75.74
2017-09-01T11:56:29.342Z,75.51
2017-09-01T11:57:29.922Z,76.48
2017-09-01T11:58:30.505Z,75.36
2017-09-01T11:59:31.087Z,75.16
2017-09-01T12:00:31.670Z,72.97
2017-09-01T12:01:32.251Z,74.32
2017-09-01T12:02:32.833Z,74.57
2017-09-01T12:03:33.418Z,75.76
2017-09-01T12:04:34.012Z,73.65
2017-09-01T12:05:34.594Z,74.93
2017-09-01T12:06:35.176Z,73.97
2017-09-01T12:07:35.759Z,71.53
2017-09-01T12:08:36.341Z,70.95
2017-09-01T12:09:36.923Z,70.02
2017-09-01T12:10:37.506Z,71.56
2017-09-01T12:11:38.087Z,71.02
2017-09-01T12:12:38.669Z,72.85
2017-09-01T12:13:39.252Z,75.99
2017-09-01T12:14:39.833Z,75.96
2017-09-01T12:15:40.424Z,77.26
2017-09-01T12:16:41.004Z,77.50
2017-09-01T12:17:41.587Z,78.52
2017-09-01T12:18:42.170Z,79.10
2017-09-01T12:19:42.750Z,79.28
2017-09-01T12:20:43.331Z,80.30
2017-09-01T12:21:43.912Z,80.60
2017-09-01T12:22:44.493Z,80.40
2017-09-01T12:23:45.075Z,80.21
2017-09-01T12:24:45.656Z,80.35
2017-09-01T12:25:46.237Z,79.73
2017-09-01T12:26:46.818Z,79.53
2017-09-01T12:27:47.411Z,80.15
2017-09-01T12:28:47.989Z,80.06
2017-09-01T12:29:48.572Z,79.19
2017-09-01T12:30:49.151Z,79.38
2017-09-01T12:31:49.734Z,78.71
2017-09-01T12:32:50.313Z,79.58
2017-09-01T12:33:50.897Z,78.75
2017-09-01T12:34:51.479Z,78.23
2017-09-01T12:35:52.060Z,77.42
2017-09-01T12:36:52.641Z,78.96
2017-09-01T12:37:53.222Z,78.48
2017-09-01T12:38:53.801Z,79.05
2017-09-01T12:39:54.385Z,79.35
2017-09-01T12:40:54.963Z,80.98
2017-09-01T12:41:55.546Z,81.12
2017-09-01T12:42:56.126Z,79.05
2017-09-01T12:43:56.706Z,80.02
2017-09-01T12:44:57.287Z,80.15
2017-09-01T12:45:57.867Z,79.58
2017-09-01T12:46:58.448Z,78.36
2017-09-01T12:47:59.029Z,77.40
2017-09-01T12:48:59.609Z,76.06
2017-09-01T12:50:00.190Z,75.86
2017-09-01T12:51:00.770Z,75.51
2017-09-01T12:52:01.350Z,75.03
2017-09-01T12:53:01.940Z,75.32
2017-09-01T12:54:02.521Z,74.84
2017-09-01T12:55:03.101Z,74.26
2017-09-01T12:56:03.690Z,74.84
2017-09-01T12:57:04.263Z,74.36
2017-09-01T12:58:04.845Z,74.01
2017-09-01T12:59:05.428Z,73.82
2017-09-01T13:00:06.010Z,73.72